createdAt,value
2019-04-30T00:02:16.244Z,9.00
2019-04-30T00:04:50.173Z,7.87
2019-04-30T00:07:19.846Z,8.77
2019-04-30T00:09:53.815Z,7.83
2019-04-30T00:12:21.105Z,8.50
2019-04-30T00:14:50.820Z,8.63
2019-04-30T00:17:20.343Z,8.30
2019-04-30T00:19:50.392Z,9.27
2019-04-30T00:22:31.014Z,8.10
2019-04-30T00:24:52.256Z,9.07
2019-04-30T00:27:28.322Z,9.23
2019-04-30T00:29:53.406Z,9.07
2019-04-30T00:32:23.087Z,7.07
2019-04-30T00:34:52.623Z,9.30
2019-04-30T00:37:22.239Z,9.00
2019-04-30T00:39:53.090Z,8.90
2019-04-30T00:42:24.305Z,8.43
2019-04-30T00:44:55.292Z,9.80
2019-04-30T00:47:25.689Z,8.23
2019-04-30T00:49:57.513Z,9.63
2019-04-30T00:52:29.565Z,8.63
2019-04-30T00:55:00.357Z,8.80
2019-04-30T00:57:29.123Z,8.57
2019-04-30T00:59:58.660Z,9.63
2019-04-30T01:02:38.815Z,8.30
2019-04-30T01:05:10.883Z,8.60
2019-04-30T01:07:48.094Z,8.43
2019-04-30T01:10:12.837Z,8.77
2019-04-30T01:12:47.223Z,9.27
2019-04-30T01:15:14.651Z,9.20
2019-04-30T01:17:45.340Z,9.47
2019-04-30T01:20:19.255Z,9.07
2019-04-30T01:22:48.929Z,8.57
2019-04-30T01:25:20.665Z,8.83
2019-04-30T01:27:51.732Z,7.73
2019-04-30T01:30:22.809Z,9.60
2019-04-30T01:32:56.878Z,9.30
2019-04-30T01:35:23.889Z,8.80
2019-04-30T01:37:54.968Z,8.80
2019-04-30T01:40:24.432Z,9.30
2019-04-30T01:42:54.188Z,8.27
2019-04-30T01:45:28.221Z,8.37
2019-04-30T01:48:00.581Z,10.17
2019-04-30T01:50:26.608Z,9.30
2019-04-30T01:52:56.242Z,10.37
2019-04-30T01:55:29.373Z,9.57
2019-04-30T01:58:19.298Z,8.33
2019-04-30T02:00:53.648Z,9.63
2019-04-30T02:03:23.339Z,9.10
2019-04-30T02:05:53.049Z,10.07
2019-04-30T02:08:22.981Z,9.73
2019-04-30T02:10:52.568Z,9.03
2019-04-30T02:13:22.180Z,9.60
2019-04-30T02:15:51.716Z,8.97
2019-04-30T02:18:21.252Z,12.53
2019-04-30T02:20:50.792Z,10.20
2019-04-30T02:23:20.396Z,9.57
2019-04-30T02:25:50.092Z,11.07
2019-04-30T02:28:19.589Z,8.90
2019-04-30T02:30:50.419Z,9.73
2019-04-30T02:33:20.803Z,10.20
2019-04-30T02:36:10.265Z,10.73
2019-04-30T02:38:49.368Z,9.80
2019-04-30T02:41:20.518Z,10.37
2019-04-30T02:43:51.791Z,9.37
2019-04-30T02:46:23.010Z,12.00
2019-04-30T02:48:53.678Z,10.23
2019-04-30T02:51:26.382Z,10.10
2019-04-30T02:54:09.814Z,11.97
2019-04-30T02:56:40.136Z,10.13
2019-04-30T02:59:10.352Z,11.90
2019-04-30T03:01:40.548Z,13.10
2019-04-30T03:04:10.255Z,12.27
2019-04-30T03:06:40.369Z,11.77
2019-04-30T03:09:10.763Z,10.87
2019-04-30T03:11:41.086Z,11.20
2019-04-30T03:14:11.128Z,12.00
2019-04-30T03:16:42.794Z,10.50
2019-04-30T03:19:22.975Z,10.10
2019-04-30T03:21:57.061Z,10.60
2019-04-30T03:24:26.591Z,11.80
2019-04-30T03:26:56.219Z,11.80
2019-04-30T03:29:25.685Z,12.90
2019-04-30T03:31:55.359Z,12.10
2019-04-30T03:34:26.323Z,11.63
2019-04-30T03:36:56.152Z,12.00
2019-04-30T03:39:25.683Z,12.70
2019-04-30T03:41:55.317Z,13.10
2019-04-30T03:44:26.101Z,12.10
2019-04-30T03:46:55.921Z,13.23
2019-04-30T03:49:25.524Z,12.03
2019-04-30T03:51:55.216Z,11.80
2019-04-30T03:54:24.744Z,11.43
2019-04-30T03:56:56.071Z,11.87
2019-04-30T03:59:25.736Z,12.60
2019-04-30T04:01:59.393Z,12.60
2019-04-30T04:04:32.998Z,12.67
2019-04-30T04:07:04.251Z,11.50
2019-04-30T04:09:49.928Z,13.13
2019-04-30T04:12:22.868Z,13.43
2019-04-30T04:14:52.495Z,14.10
2019-04-30T04:17:22.711Z,14.10
2019-04-30T04:19:52.553Z,14.23
2019-04-30T04:22:22.129Z,15.47
2019-04-30T04:24:51.968Z,16.87
2019-04-30T04:27:21.959Z,14.73
2019-04-30T04:29:51.754Z,16.70
2019-04-30T04:32:24.304Z,17.77
2019-04-30T04:34:52.800Z,17.53
2019-04-30T04:37:22.316Z,18.90
2019-04-30T04:39:52.020Z,16.00
2019-04-30T04:42:21.633Z,16.17
2019-04-30T04:44:51.337Z,15.47
2019-04-30T04:47:21.046Z,14.23
2019-04-30T04:49:53.761Z,16.00
2019-04-30T04:52:22.333Z,17.30
2019-04-30T04:54:52.220Z,15.53
2019-04-30T04:57:23.024Z,13.20
2019-04-30T04:59:52.863Z,11.03
2019-04-30T05:02:39.669Z,9.33
2019-04-30T05:05:09.907Z,8.70
2019-04-30T05:07:40.069Z,10.57
2019-04-30T05:10:10.300Z,9.77
2019-04-30T05:12:40.044Z,9.43
2019-04-30T05:15:10.761Z,9.67
2019-04-30T05:17:40.313Z,9.53
2019-04-30T05:20:10.311Z,8.10
2019-04-30T05:22:39.839Z,9.00
2019-04-30T05:25:09.877Z,8.77
2019-04-30T05:27:39.543Z,8.87
2019-04-30T05:30:12.179Z,8.90
2019-04-30T05:32:41.293Z,8.70
2019-04-30T05:35:11.252Z,9.13
2019-04-30T05:37:40.875Z,8.70
2019-04-30T05:40:10.399Z,9.73
2019-04-30T05:42:39.871Z,8.83
2019-04-30T05:45:10.052Z,10.13
2019-04-30T05:47:39.591Z,11.03
2019-04-30T05:50:09.384Z,10.83
2019-04-30T05:52:39.683Z,13.30
2019-04-30T05:55:10.172Z,12.37
2019-04-30T05:57:52.714Z,11.60
2019-04-30T06:00:11.478Z,10.70
2019-04-30T06:02:41.684Z,9.20
2019-04-30T06:05:11.428Z,11.00
2019-04-30T06:07:41.042Z,10.80
2019-04-30T06:10:30.523Z,10.93
2019-04-30T06:13:10.616Z,10.40
2019-04-30T06:15:41.933Z,10.07
2019-04-30T06:18:14.058Z,12.50
2019-04-30T06:20:42.981Z,12.37
2019-04-30T06:23:12.528Z,12.13
2019-04-30T06:25:56.295Z,11.90
2019-04-30T06:28:13.797Z,11.03
2019-04-30T06:30:43.557Z,12.30
2019-04-30T06:33:13.517Z,12.07
2019-04-30T06:35:43.669Z,11.63
2019-04-30T06:38:13.352Z,11.03
2019-04-30T06:40:43.581Z,13.03
2019-04-30T06:43:13.640Z,12.97
2019-04-30T06:45:44.305Z,11.87
2019-04-30T06:48:17.045Z,13.47
2019-04-30T06:50:46.785Z,12.17
2019-04-30T06:53:16.493Z,14.27
2019-04-30T06:55:46.036Z,14.43
2019-04-30T06:58:15.662Z,15.50
2019-04-30T07:00:45.311Z,12.80
2019-04-30T07:03:15.017Z,12.70
2019-04-30T07:05:44.587Z,12.57
2019-04-30T07:08:38.955Z,14.00
2019-04-30T07:11:17.116Z,13.40
2019-04-30T07:13:49.546Z,11.70
2019-04-30T07:16:19.812Z,11.27
2019-04-30T07:18:49.691Z,12.43
2019-04-30T07:21:20.061Z,13.57
2019-04-30T07:23:50.220Z,14.23
2019-04-30T07:26:24.215Z,14.57
2019-04-30T07:28:54.780Z,15.77
2019-04-30T07:31:22.115Z,14.43
2019-04-30T07:33:53.850Z,17.20
2019-04-30T07:36:23.283Z,15.50
2019-04-30T07:38:56.406Z,13.60
2019-04-30T07:41:24.269Z,14.53
2019-04-30T07:43:53.825Z,13.43
2019-04-30T07:46:23.370Z,14.70
2019-04-30T07:48:52.912Z,14.73
2019-04-30T07:51:23.180Z,13.97
2019-04-30T07:53:53.252Z,14.27
2019-04-30T07:56:27.978Z,15.07
2019-04-30T07:58:54.167Z,13.80
2019-04-30T08:01:23.699Z,11.83
2019-04-30T08:03:55.061Z,16.07
2019-04-30T08:06:24.824Z,12.30
2019-04-30T08:08:57.622Z,12.20
2019-04-30T08:11:26.528Z,11.60
2019-04-30T08:13:58.325Z,11.93
2019-04-30T08:16:28.741Z,11.57
2019-04-30T08:18:59.144Z,12.63
2019-04-30T08:21:28.983Z,12.53
2019-04-30T08:23:59.326Z,12.57
2019-04-30T08:26:29.810Z,13.37
2019-04-30T08:28:59.882Z,14.47
2019-04-30T08:31:29.533Z,13.13
2019-04-30T08:33:59.261Z,14.37
2019-04-30T08:36:29.851Z,13.37
2019-04-30T08:38:59.811Z,12.00
2019-04-30T08:41:29.527Z,14.17
2019-04-30T08:43:59.935Z,14.80
2019-04-30T08:46:29.691Z,14.53
2019-04-30T08:48:59.405Z,13.33
2019-04-30T08:51:31.160Z,15.33
2019-04-30T08:54:00.857Z,17.07
2019-04-30T08:56:30.482Z,18.27
2019-04-30T08:58:59.968Z,18.10
2019-04-30T09:01:29.633Z,18.90
2019-04-30T09:03:59.874Z,17.80
2019-04-30T09:06:30.285Z,19.17
2019-04-30T09:09:00.540Z,18.03
2019-04-30T09:11:38.491Z,19.67
2019-04-30T09:14:01.379Z,19.57
2019-04-30T09:16:31.121Z,19.40
2019-04-30T09:19:00.640Z,20.20
2019-04-30T09:21:30.665Z,21.13
2019-04-30T09:24:00.299Z,18.37
2019-04-30T09:26:29.792Z,18.00
2019-04-30T09:28:59.472Z,18.77
2019-04-30T09:31:29.704Z,18.37
2019-04-30T09:34:00.926Z,21.33
2019-04-30T09:36:31.011Z,21.43
2019-04-30T09:39:01.523Z,20.20
2019-04-30T09:41:31.395Z,20.63
2019-04-30T09:44:00.921Z,19.23
2019-04-30T09:46:30.409Z,20.67
2019-04-30T09:49:00.037Z,22.80
2019-04-30T09:51:30.990Z,20.97
2019-04-30T09:54:03.495Z,20.83
2019-04-30T09:56:32.805Z,19.50
2019-04-30T09:59:02.429Z,21.10
2019-04-30T10:01:33.176Z,20.90
2019-04-30T10:04:03.494Z,20.90
2019-04-30T10:06:39.641Z,21.63
2019-04-30T10:09:06.743Z,20.87
2019-04-30T10:11:38.264Z,23.50
2019-04-30T10:14:07.844Z,21.53
2019-04-30T10:16:45.095Z,21.40
2019-04-30T10:19:26.416Z,20.80
2019-04-30T10:21:56.107Z,19.80
2019-04-30T10:24:25.796Z,20.40
2019-04-30T10:26:55.501Z,19.90
2019-04-30T10:29:25.892Z,19.20
2019-04-30T10:31:55.636Z,21.97
2019-04-30T10:34:25.171Z,21.67
2019-04-30T10:36:54.656Z,21.27
2019-04-30T10:39:24.780Z,21.73
2019-04-30T10:41:54.511Z,20.50
2019-04-30T10:44:24.309Z,22.60
2019-04-30T10:46:53.856Z,20.53
2019-04-30T10:49:23.562Z,20.00
2019-04-30T10:51:53.351Z,22.07
2019-04-30T10:54:26.254Z,22.07
2019-04-30T10:56:54.700Z,23.30
2019-04-30T10:59:24.508Z,23.13
2019-04-30T11:01:54.324Z,21.93
2019-04-30T11:04:24.027Z,22.90
2019-04-30T11:06:53.667Z,22.30
2019-04-30T11:09:24.148Z,21.37
2019-04-30T11:11:53.807Z,21.63
2019-04-30T11:14:23.345Z,20.77
2019-04-30T11:16:53.089Z,22.37
2019-04-30T11:19:22.980Z,20.77
2019-04-30T11:21:53.126Z,19.93
2019-04-30T11:24:22.823Z,18.77
2019-04-30T11:26:53.165Z,20.77
2019-04-30T11:29:23.526Z,18.50
2019-04-30T11:31:55.159Z,22.13
2019-04-30T11:34:27.879Z,20.93
2019-04-30T11:36:56.599Z,22.40
2019-04-30T11:39:26.531Z,21.63
2019-04-30T11:41:56.266Z,20.50
2019-04-30T11:44:30.818Z,20.00
2019-04-30T11:47:00.756Z,19.77
2019-04-30T11:49:30.368Z,21.87
2019-04-30T11:52:00.299Z,21.47
2019-04-30T11:54:30.426Z,19.87
2019-04-30T11:57:00.301Z,19.97
2019-04-30T11:59:30.637Z,22.43
2019-04-30T12:02:02.553Z,21.13
2019-04-30T12:04:32.410Z,23.57
2019-04-30T12:07:03.752Z,21.40
2019-04-30T12:09:40.857Z,20.33
2019-04-30T12:12:10.840Z,20.57
2019-04-30T12:14:40.420Z,19.70
2019-04-30T12:17:10.074Z,21.37
2019-04-30T12:19:39.628Z,21.97
2019-04-30T12:22:09.087Z,23.37
2019-04-30T12:24:39.269Z,23.17
2019-04-30T12:27:09.060Z,26.20
2019-04-30T12:29:39.758Z,21.83
2019-04-30T12:32:09.871Z,22.37
2019-04-30T12:34:39.576Z,28.47
2019-04-30T12:37:10.736Z,21.23
2019-04-30T12:39:40.609Z,23.10
2019-04-30T12:42:10.608Z,23.97
2019-04-30T12:44:40.366Z,23.73
2019-04-30T12:47:10.085Z,22.53
2019-04-30T12:49:50.738Z,23.50
2019-04-30T12:52:21.953Z,24.40
2019-04-30T12:55:14.924Z,23.63
2019-04-30T12:57:39.231Z,26.20
2019-04-30T13:00:11.569Z,22.80
2019-04-30T13:02:41.334Z,26.03
2019-04-30T13:05:11.703Z,24.30
2019-04-30T13:07:41.397Z,23.43
2019-04-30T13:10:12.207Z,23.07
2019-04-30T13:12:42.864Z,25.57
2019-04-30T13:15:13.018Z,24.47
2019-04-30T13:17:42.548Z,25.90
2019-04-30T13:20:18.514Z,24.30
2019-04-30T13:22:44.376Z,25.70
2019-04-30T13:25:27.517Z,25.33
2019-04-30T13:27:51.254Z,22.17
2019-04-30T13:30:23.516Z,24.90
2019-04-30T13:32:54.980Z,25.90
2019-04-30T13:35:24.747Z,24.50
2019-04-30T13:37:59.288Z,24.23
2019-04-30T13:40:30.995Z,25.20
2019-04-30T13:43:02.486Z,25.13
2019-04-30T13:45:32.194Z,26.60
2019-04-30T13:48:01.902Z,25.50
2019-04-30T13:50:31.671Z,25.03
2019-04-30T13:53:01.625Z,27.00
2019-04-30T13:55:42.921Z,27.23
2019-04-30T13:58:02.837Z,26.77
2019-04-30T14:00:32.311Z,24.10
2019-04-30T14:03:19.703Z,28.63
2019-04-30T14:05:51.590Z,30.03
2019-04-30T14:08:22.201Z,27.73
2019-04-30T14:10:51.690Z,25.43
2019-04-30T14:13:22.099Z,26.13
2019-04-30T14:15:51.584Z,28.80
2019-04-30T14:18:28.398Z,31.70
2019-04-30T14:20:52.312Z,29.87
2019-04-30T14:23:22.178Z,28.43
2019-04-30T14:25:56.527Z,28.27
2019-04-30T14:28:22.884Z,27.00
2019-04-30T14:30:52.461Z,28.03
2019-04-30T14:33:25.872Z,30.23
2019-04-30T14:35:53.880Z,28.87
2019-04-30T14:38:23.482Z,25.30
2019-04-30T14:40:53.645Z,29.87
2019-04-30T14:43:25.927Z,26.03
2019-04-30T14:46:14.541Z,26.90
2019-04-30T14:48:47.230Z,28.90
2019-04-30T14:51:17.704Z,28.60
2019-04-30T14:53:49.092Z,30.50
2019-04-30T14:56:26.218Z,27.00
2019-04-30T14:59:13.980Z,29.77
2019-04-30T15:01:45.097Z,31.43
2019-04-30T15:04:14.687Z,30.03
2019-04-30T15:06:44.364Z,29.50
2019-04-30T15:09:14.905Z,32.80
2019-04-30T15:11:44.464Z,27.20
2019-04-30T15:14:14.266Z,30.60
2019-04-30T15:16:43.804Z,28.73
2019-04-30T15:19:13.482Z,29.27
2019-04-30T15:21:43.785Z,29.10
2019-04-30T15:24:21.229Z,29.43
2019-04-30T15:26:57.627Z,28.17
2019-04-30T15:29:22.921Z,26.00
2019-04-30T15:31:52.480Z,26.43
2019-04-30T15:34:22.108Z,26.40
2019-04-30T15:36:51.788Z,27.93
2019-04-30T15:39:30.895Z,25.57
2019-04-30T15:42:00.720Z,25.40
2019-04-30T15:44:30.845Z,24.90
2019-04-30T15:47:00.667Z,25.10
2019-04-30T15:49:30.391Z,24.73
2019-04-30T15:52:00.089Z,23.90
2019-04-30T15:54:29.640Z,24.00
2019-04-30T15:57:00.462Z,25.63
2019-04-30T15:59:31.787Z,26.40
2019-04-30T16:02:02.972Z,25.83
2019-04-30T16:04:49.336Z,25.30
2019-04-30T16:07:19.592Z,24.07
2019-04-30T16:10:00.254Z,24.87
2019-04-30T16:12:31.484Z,24.40
2019-04-30T16:15:01.269Z,24.00
2019-04-30T16:17:30.815Z,24.10
2019-04-30T16:20:00.409Z,24.70
2019-04-30T16:22:30.160Z,23.93
2019-04-30T16:25:00.709Z,25.63
2019-04-30T16:27:30.288Z,25.60
2019-04-30T16:29:59.758Z,25.17
2019-04-30T16:32:29.312Z,25.83
2019-04-30T16:34:59.317Z,26.57
2019-04-30T16:37:29.172Z,27.10
2019-04-30T16:39:58.737Z,25.40
2019-04-30T16:42:29.136Z,24.40
2019-04-30T16:45:00.751Z,22.67
2019-04-30T16:47:30.284Z,25.60
2019-04-30T16:49:59.845Z,21.50
2019-04-30T16:52:29.563Z,22.83
2019-04-30T16:54:59.391Z,25.40
2019-04-30T16:57:30.397Z,24.07
2019-04-30T17:00:00.452Z,23.53
2019-04-30T17:02:31.796Z,20.53
2019-04-30T17:05:15.087Z,21.30
2019-04-30T17:07:50.643Z,20.33
2019-04-30T17:10:39.377Z,18.43
2019-04-30T17:13:13.624Z,18.67
2019-04-30T17:15:44.765Z,20.07
2019-04-30T17:18:14.395Z,17.60
2019-04-30T17:20:44.208Z,18.80
2019-04-30T17:23:13.674Z,19.63
2019-04-30T17:25:43.406Z,19.50
2019-04-30T17:28:13.443Z,19.53
2019-04-30T17:30:43.044Z,18.33
2019-04-30T17:33:12.580Z,19.13
2019-04-30T17:35:42.540Z,18.70
2019-04-30T17:38:12.297Z,16.77
2019-04-30T17:40:41.872Z,18.97
2019-04-30T17:43:11.407Z,19.47
2019-04-30T17:45:40.967Z,18.20
2019-04-30T17:48:10.428Z,17.57
2019-04-30T17:50:40.010Z,18.97
2019-04-30T17:53:09.604Z,17.90
2019-04-30T17:55:39.256Z,17.53
2019-04-30T17:58:09.794Z,17.50
2019-04-30T18:00:41.082Z,17.00
2019-04-30T18:03:10.969Z,18.50
2019-04-30T18:05:40.717Z,16.07
2019-04-30T18:08:10.248Z,17.37
2019-04-30T18:10:40.216Z,15.33
2019-04-30T18:13:09.824Z,16.47
2019-04-30T18:15:39.379Z,16.07
2019-04-30T18:18:22.474Z,17.00
2019-04-30T18:20:56.705Z,17.00
2019-04-30T18:23:42.192Z,19.13
2019-04-30T18:26:13.629Z,18.37
2019-04-30T18:28:43.328Z,17.63
2019-04-30T18:31:13.060Z,19.10
2019-04-30T18:33:42.707Z,17.63
2019-04-30T18:36:12.524Z,18.83
2019-04-30T18:38:42.375Z,18.47
2019-04-30T18:41:12.103Z,19.80
2019-04-30T18:43:41.640Z,19.37
2019-04-30T18:46:11.577Z,19.73
2019-04-30T18:48:41.328Z,19.73
2019-04-30T18:51:29.882Z,19.30
2019-04-30T18:53:42.494Z,19.57
2019-04-30T18:56:14.658Z,19.30
2019-04-30T18:58:43.515Z,21.30
2019-04-30T19:01:13.042Z,19.60
2019-04-30T19:03:42.885Z,20.97
2019-04-30T19:06:26.045Z,22.80
2019-04-30T19:09:05.376Z,20.83
2019-04-30T19:11:42.695Z,20.90
2019-04-30T19:14:19.250Z,20.67
2019-04-30T19:16:56.068Z,21.47
2019-04-30T19:19:36.101Z,21.33
2019-04-30T19:22:06.103Z,21.87
2019-04-30T19:24:35.635Z,20.37
2019-04-30T19:27:05.503Z,21.13
2019-04-30T19:29:35.549Z,20.23
2019-04-30T19:32:05.272Z,19.10
2019-04-30T19:34:34.804Z,20.07
2019-04-30T19:37:04.448Z,20.03
2019-04-30T19:39:34.051Z,22.60
2019-04-30T19:42:03.600Z,22.03
2019-04-30T19:44:33.333Z,22.40
2019-04-30T19:47:03.176Z,19.90
2019-04-30T19:49:32.714Z,21.73
2019-04-30T19:52:08.463Z,21.60
2019-04-30T19:54:33.503Z,22.23
2019-04-30T19:57:03.279Z,23.20
2019-04-30T19:59:32.813Z,23.07
2019-04-30T20:02:02.472Z,22.77
2019-04-30T20:04:34.104Z,23.60
2019-04-30T20:07:03.508Z,23.10
2019-04-30T20:09:33.040Z,22.83
2019-04-30T20:12:02.780Z,24.53
2019-04-30T20:14:32.526Z,22.93
2019-04-30T20:17:02.100Z,20.83
2019-04-30T20:19:31.645Z,22.03
2019-04-30T20:22:01.206Z,23.77
2019-04-30T20:24:30.847Z,23.57
2019-04-30T20:27:06.900Z,21.53
2019-04-30T20:29:31.880Z,23.50
2019-04-30T20:32:01.677Z,22.57
2019-04-30T20:34:31.631Z,22.80
2019-04-30T20:37:01.173Z,23.00
2019-04-30T20:39:39.451Z,23.10
2019-04-30T20:42:09.216Z,22.10
2019-04-30T20:44:39.017Z,22.57
2019-04-30T20:47:08.998Z,22.33
2019-04-30T20:49:39.142Z,23.60
2019-04-30T20:52:09.087Z,23.80
2019-04-30T20:54:39.069Z,21.50
2019-04-30T20:57:08.922Z,23.30
2019-04-30T20:59:38.838Z,23.43
2019-04-30T21:02:08.848Z,22.90
2019-04-30T21:04:38.648Z,22.93
2019-04-30T21:07:09.421Z,21.17
2019-04-30T21:09:39.303Z,21.80
2019-04-30T21:12:09.026Z,24.63
2019-04-30T21:14:40.412Z,22.50
2019-04-30T21:17:10.180Z,20.67
2019-04-30T21:19:39.719Z,21.40
2019-04-30T21:22:09.572Z,22.97
2019-04-30T21:24:39.520Z,22.93
2019-04-30T21:27:09.127Z,20.40
2019-04-30T21:29:39.139Z,23.20
2019-04-30T21:32:10.688Z,22.63
2019-04-30T21:34:48.436Z,21.20
2019-04-30T21:37:18.467Z,22.40
2019-04-30T21:39:50.069Z,22.43
2019-04-30T21:42:19.542Z,21.00
2019-04-30T21:44:49.098Z,22.03
2019-04-30T21:47:18.629Z,22.63
2019-04-30T21:49:48.175Z,20.90
2019-04-30T21:52:17.712Z,21.80
2019-04-30T21:54:48.690Z,20.17
2019-04-30T21:57:18.475Z,20.47
2019-04-30T21:59:48.739Z,22.83
2019-04-30T22:02:18.629Z,19.90
2019-04-30T22:04:48.299Z,19.73
2019-04-30T22:07:19.539Z,21.50
2019-04-30T22:09:49.253Z,21.33
2019-04-30T22:12:19.131Z,19.27
2019-04-30T22:14:48.811Z,21.27
2019-04-30T22:17:19.296Z,19.57
2019-04-30T22:19:51.614Z,19.40
2019-04-30T22:22:20.488Z,20.80
2019-04-30T22:24:50.172Z,21.23
2019-04-30T22:27:19.713Z,21.37
2019-04-30T22:29:49.388Z,22.37
2019-04-30T22:32:19.084Z,21.73
2019-04-30T22:34:48.705Z,19.97
2019-04-30T22:37:19.538Z,20.50
2019-04-30T22:40:03.029Z,19.60
2019-04-30T22:42:33.809Z,19.30
2019-04-30T22:45:07.511Z,19.00
2019-04-30T22:47:37.417Z,21.90
2019-04-30T22:50:08.075Z,22.23
2019-04-30T22:52:39.232Z,21.20
2019-04-30T22:55:09.048Z,21.30
2019-04-30T22:57:38.659Z,22.40
2019-04-30T23:00:11.500Z,23.17
2019-04-30T23:02:57.703Z,21.77
2019-04-30T23:05:27.696Z,22.00
2019-04-30T23:07:57.421Z,24.00
2019-04-30T23:10:27.140Z,22.00
2019-04-30T23:12:56.706Z,25.30
2019-04-30T23:15:26.355Z,21.87
2019-04-30T23:17:56.054Z,23.63
2019-04-30T23:20:25.600Z,21.80
2019-04-30T23:22:55.140Z,22.23
2019-04-30T23:25:24.671Z,22.87
2019-04-30T23:27:54.224Z,22.10
2019-04-30T23:30:23.765Z,23.67
2019-04-30T23:32:53.320Z,23.67
2019-04-30T23:35:22.855Z,22.80
2019-04-30T23:37:52.696Z,24.30
2019-04-30T23:40:27.843Z,26.37
2019-04-30T23:42:57.703Z,24.63
2019-04-30T23:45:27.249Z,24.57
2019-04-30T23:47:56.896Z,27.47
2019-04-30T23:50:26.622Z,27.90
2019-04-30T23:52:56.387Z,27.00
2019-04-30T23:55:26.117Z,28.27
2019-04-30T23:57:55.663Z,27.83
